Time;durP1;ratioP1;P1;durP2;ratioP2;P2;SDS_P1;SDS_P2;PMS_P1;PMS_P2;Temp;Humidity;BMP_temperature;BMP_pressure;BME280_temperature;BME280_humidity;BME280_pressure;Samples;Min_cycle;Max_cycle;Signal;HPM_P1;HPM_P2
2023/10/22 00:02:20;;;;;;;15.50;10.60;;;;;;;14.16;69.47;100376.23;105092;1261;63740;-52
2023/10/22 00:04:48;;;;;;;16.10;10.50;;;;;;;14.15;69.37;100380.05;105075;1257;59728;-54
2023/10/22 00:07:15;;;;;;;15.80;11.20;;;;;;;14.13;69.34;100381.45;104901;1265;59583;-53
2023/10/22 00:09:43;;;;;;;19.30;9.80;;;;;;;14.15;69.39;100379.17;105032;1270;64653;-53
2023/10/22 00:12:11;;;;;;;14.00;9.30;;;;;;;14.19;69.30;100375.45;104970;1263;61415;-51
2023/10/22 00:14:39;;;;;;;15.20;10.60;;;;;;;14.22;69.34;100373.34;104937;1262;63773;-55
2023/10/22 00:17:06;;;;;;;15.60;10.70;;;;;;;14.25;69.46;100365.32;105109;1259;60642;-55
2023/10/22 00:19:46;;;;;;;17.50;10.60;;;;;;;14.21;69.35;100362.36;105156;1263;59621;-57
2023/10/22 00:22:15;;;;;;;17.00;10.80;;;;;;;14.19;69.37;100357.30;105127;1263;64401;-54
2023/10/22 00:24:43;;;;;;;12.20;9.20;;;;;;;14.20;69.27;100354.14;105006;1263;61385;-54
2023/10/22 00:27:11;;;;;;;16.60;10.10;;;;;;;14.23;69.35;100359.35;105142;1263;63779;-54
2023/10/22 00:29:39;;;;;;;14.40;10.60;;;;;;;14.24;69.29;100353.40;105161;1268;60846;-54
2023/10/22 00:32:07;;;;;;;17.80;11.60;;;;;;;14.25;69.23;100349.60;105040;1262;59728;-54
2023/10/22 00:34:35;;;;;;;14.50;11.00;;;;;;;14.24;69.25;100347.41;105406;1258;64047;-54
2023/10/22 00:37:03;;;;;;;18.40;11.80;;;;;;;14.21;69.29;100348.23;104978;1264;61307;-55
2023/10/22 00:39:31;;;;;;;15.60;10.90;;;;;;;14.18;69.46;100349.92;105491;1260;63735;-54
2023/10/22 00:41:58;;;;;;;13.50;9.60;;;;;;;14.19;69.35;100347.74;104767;1263;59863;-56
2023/10/22 00:44:26;;;;;;;14.70;10.50;;;;;;;14.19;69.25;100345.58;105001;1263;59750;-54
2023/10/22 00:46:54;;;;;;;16.40;10.00;;;;;;;14.20;69.33;100347.59;105059;1263;64170;-54
2023/10/22 00:49:22;;;;;;;16.50;10.90;;;;;;;14.21;69.37;100346.59;105166;1261;60092;-54
2023/10/22 00:51:50;;;;;;;16.20;11.50;;;;;;;14.21;69.49;100343.60;104772;1263;63746;-55
2023/10/22 00:54:18;;;;;;;18.20;12.10;;;;;;;14.20;69.47;100345.11;105127;1271;60294;-54
2023/10/22 00:56:46;;;;;;;18.90;10.50;;;;;;;14.20;69.58;100352.42;105134;1258;59826;-56
2023/10/22 00:59:14;;;;;;;16.00;10.40;;;;;;;14.21;69.55;100356.56;105050;1264;64198;-54
2023/10/22 01:01:45;;;;;;;15.80;10.40;;;;;;;14.21;69.45;100354.39;105130;1264;61396;-54
2023/10/22 01:04:12;;;;;;;15.20;10.60;;;;;;;14.20;69.42;100357.86;105096;1262;63461;-56
2023/10/22 01:06:40;;;;;;;15.30;11.00;;;;;;;14.19;69.52;100353.88;104998;1264;59784;-55
2023/10/22 01:09:09;;;;;;;20.60;10.90;;;;;;;14.18;69.61;100360.34;105336;1263;59642;-55
2023/10/22 01:11:57;;;;;;;18.40;10.90;;;;;;;14.15;69.66;100360.51;105482;1262;64202;-56
2023/10/22 01:14:24;;;;;;;16.40;10.90;;;;;;;14.10;69.74;100355.05;105158;1263;60320;-53
2023/10/22 01:16:52;;;;;;;14.30;10.40;;;;;;;14.13;69.93;100359.09;105104;1264;63764;-54
2023/10/22 01:19:20;;;;;;;16.30;10.90;;;;;;;14.18;70.00;100362.84;104908;1266;59715;-53
2023/10/22 01:21:48;;;;;;;14.10;10.00;;;;;;;14.22;69.86;100368.63;105992;1257;59651;-54
2023/10/22 01:24:16;;;;;;;16.30;10.60;;;;;;;14.22;69.71;100368.44;105213;1263;64649;-54
2023/10/22 01:26:44;;;;;;;14.60;10.40;;;;;;;14.19;70.01;100366.95;105358;1261;61899;-55
2023/10/22 01:29:12;;;;;;;17.10;10.90;;;;;;;14.17;70.20;100368.19;105202;1261;63887;-54
2023/10/22 01:31:40;;;;;;;15.90;10.60;;;;;;;14.19;70.13;100367.33;105372;1257;59714;-55
2023/10/22 01:34:07;;;;;;;16.40;10.60;;;;;;;14.21;70.06;100365.14;104779;1264;61054;-54
2023/10/22 01:36:35;;;;;;;15.00;10.60;;;;;;;14.24;69.96;100369.48;105326;1257;62836;-54
2023/10/22 01:39:03;;;;;;;15.50;10.70;;;;;;;14.24;69.89;100368.41;104796;1262;60411;-52
2023/10/22 01:41:31;;;;;;;15.70;10.40;;;;;;;14.27;70.14;100371.83;105385;1260;63771;-54
2023/10/22 01:43:59;;;;;;;17.40;11.60;;;;;;;14.28;70.25;100373.86;104734;1265;59770;-54
2023/10/22 01:46:27;;;;;;;15.10;11.00;;;;;;;14.27;70.17;100369.70;104869;1258;59716;-54
2023/10/22 01:48:54;;;;;;;16.90;11.00;;;;;;;14.24;70.16;100364.31;105561;1257;62840;-55
2023/10/22 01:51:22;;;;;;;16.00;10.40;;;;;;;14.22;70.07;100361.35;104760;1264;60273;-55
2023/10/22 01:53:50;;;;;;;14.40;10.30;;;;;;;14.24;70.08;100360.83;104756;1264;63736;-54
2023/10/22 01:56:18;;;;;;;16.00;10.00;;;;;;;14.26;70.13;100360.45;104863;1258;59662;-53
2023/10/22 01:58:46;;;;;;;17.30;10.80;;;;;;;14.29;70.22;100357.49;104837;1262;59602;-54
2023/10/22 02:01:14;;;;;;;18.30;11.80;;;;;;;14.28;70.18;100357.77;104927;1257;64103;-52
2023/10/22 02:03:45;;;;;;;15.30;9.90;;;;;;;14.26;70.34;100362.02;104952;1257;61395;-54
2023/10/22 02:06:13;;;;;;;12.70;9.30;;;;;;;14.26;70.37;100366.92;104905;1264;62508;-56
2023/10/22 02:08:41;;;;;;;14.70;10.50;;;;;;;14.29;70.36;100369.52;105105;1261;60598;-53
2023/10/22 02:11:09;;;;;;;20.20;11.20;;;;;;;14.34;70.41;100370.79;106086;1263;60432;-54
2023/10/22 02:13:37;;;;;;;14.70;10.10;;;;;;;14.37;70.25;100366.27;105095;1260;63707;-55
2023/10/22 02:16:05;;;;;;;16.70;10.70;;;;;;;14.40;70.23;100369.16;104893;1264;61349;-55
2023/10/22 02:18:33;;;;;;;15.60;10.40;;;;;;;14.41;70.29;100369.80;105414;1260;63781;-58
2023/10/22 02:21:03;;;;;;;16.20;11.00;;;;;;;14.39;70.27;100370.73;105095;1257;60572;-55
2023/10/22 02:23:31;;;;;;;17.30;11.60;;;;;;;14.36;70.34;100367.49;105505;1262;60459;-54
2023/10/22 02:25:58;;;;;;;15.00;10.70;;;;;;;14.37;70.23;100372.50;105069;1260;65562;-61
2023/10/22 02:28:26;;;;;;;14.60;10.60;;;;;;;14.43;70.34;100371.05;105057;1263;61362;-62
2023/10/22 02:30:53;;;;;;;15.90;11.30;;;;;;;14.46;70.25;100367.73;105041;1260;63772;-62
2023/10/22 02:33:21;;;;;;;18.90;11.40;;;;;;;14.47;70.15;100364.79;105134;1257;60705;-62
2023/10/22 02:35:49;;;;;;;19.00;12.90;;;;;;;14.47;70.26;100359.16;105018;1258;60464;-61
2023/10/22 02:38:17;;;;;;;15.00;10.50;;;;;;;14.47;70.37;100354.75;104829;1259;64916;-60
2023/10/22 02:40:49;;;;;;;16.00;10.50;;;;;;;14.47;70.48;100350.12;105008;1264;61558;-60
2023/10/22 02:43:17;;;;;;;16.00;10.60;;;;;;;14.49;70.17;100359.80;105113;1263;63799;-60
2023/10/22 02:45:51;;;;;;;15.20;10.90;;;;;;;14.51;69.95;100364.56;105018;1262;60459;-60
2023/10/22 02:48:19;;;;;;;17.70;11.30;;;;;;;14.53;69.95;100362.64;105023;1257;60621;-59
2023/10/22 02:50:47;;;;;;;18.50;13.50;;;;;;;14.54;70.18;100366.94;105191;1258;63738;-60
2023/10/22 02:53:15;;;;;;;20.60;12.70;;;;;;;14.54;70.32;100367.73;105124;1264;61528;-60
2023/10/22 02:55:42;;;;;;;18.30;12.40;;;;;;;14.52;70.23;100371.75;105251;1260;62584;-59
2023/10/22 02:58:10;;;;;;;18.50;13.30;;;;;;;14.54;70.12;100371.41;105083;1260;60425;-59
2023/10/22 03:00:37;;;;;;;17.70;11.90;;;;;;;14.54;69.84;100368.77;104895;1257;60449;-62
2023/10/22 03:03:05;;;;;;;18.20;12.30;;;;;;;14.55;70.07;100366.89;105106;1258;73874;-61
2023/10/22 03:05:34;;;;;;;21.20;14.50;;;;;;;14.55;70.09;100365.83;105448;1257;61349;-62
2023/10/22 03:08:03;;;;;;;20.60;14.80;;;;;;;14.53;70.39;100361.57;104954;1257;62538;-64
2023/10/22 03:10:35;;;;;;;19.60;13.10;;;;;;;14.52;70.26;100357.48;105350;1261;60572;-61
2023/10/22 03:13:02;;;;;;;17.20;12.60;;;;;;;14.54;70.20;100359.71;105313;1258;60357;-64
2023/10/22 03:15:30;;;;;;;16.20;12.50;;;;;;;14.57;70.01;100359.95;104818;1264;64901;-61
2023/10/22 03:17:58;;;;;;;19.90;13.50;;;;;;;14.57;69.94;100352.93;105633;1262;60408;-62
2023/10/22 03:20:26;;;;;;;18.40;13.10;;;;;;;14.55;70.06;100350.13;105674;1260;63783;-61
2023/10/22 03:22:53;;;;;;;19.30;13.90;;;;;;;14.51;70.14;100345.34;104825;1264;60556;-62
2023/10/22 03:25:24;;;;;;;19.00;13.10;;;;;;;14.46;70.26;100340.38;105124;1258;60364;-61
2023/10/22 03:27:51;;;;;;;20.80;12.50;;;;;;;14.47;70.28;100335.65;105038;1257;64971;-62
2023/10/22 03:30:19;;;;;;;21.70;13.00;;;;;;;14.47;70.00;100323.09;104982;1263;61434;-64
2023/10/22 03:32:46;;;;;;;19.10;12.90;;;;;;;14.45;70.14;100321.90;105083;1260;63867;-62
2023/10/22 03:35:16;;;;;;;21.30;13.60;;;;;;;14.44;70.33;100327.67;105179;1261;60566;-60
2023/10/22 03:37:44;;;;;;;19.90;14.10;;;;;;;14.39;70.32;100334.20;105195;1257;61033;-60
2023/10/22 03:40:12;;;;;;;21.40;13.30;;;;;;;14.36;70.57;100338.88;105127;1261;65091;-61
2023/10/22 03:42:40;;;;;;;19.20;12.00;;;;;;;14.37;70.43;100335.61;105118;1262;60546;-61
2023/10/22 03:45:08;;;;;;;19.60;12.80;;;;;;;14.39;70.53;100328.29;105000;1258;62429;-61
2023/10/22 03:47:36;;;;;;;18.20;12.50;;;;;;;14.44;70.62;100323.11;105441;1261;60530;-62
2023/10/22 03:50:04;;;;;;;19.10;12.80;;;;;;;14.44;70.54;100324.67;105057;1257;60480;-61
2023/10/22 03:52:32;;;;;;;20.60;13.00;;;;;;;14.39;70.55;100322.31;105537;1263;63629;-61
2023/10/22 03:55:00;;;;;;;18.50;12.10;;;;;;;14.36;70.74;100322.64;105552;1260;61305;-60
2023/10/22 03:57:27;;;;;;;19.30;12.20;;;;;;;14.39;70.65;100326.02;105595;1258;62439;-62
2023/10/22 03:59:55;;;;;;;24.60;12.50;;;;;;;14.45;70.62;100324.89;105071;1262;60514;-61
2023/10/22 04:02:23;;;;;;;18.40;11.90;;;;;;;14.48;70.61;100323.89;105088;1263;60553;-61
2023/10/22 04:04:50;;;;;;;18.60;13.00;;;;;;;14.48;70.57;100321.96;105146;1261;65552;-61
2023/10/22 04:07:18;;;;;;;19.70;12.80;;;;;;;14.46;70.67;100328.37;105025;1257;61974;-61
2023/10/22 04:09:46;;;;;;;20.00;12.80;;;;;;;14.41;70.61;100326.36;104974;1260;63743;-59
2023/10/22 04:12:14;;;;;;;19.00;11.40;;;;;;;14.41;70.55;100327.82;105093;1257;60610;-60
2023/10/22 04:14:42;;;;;;;22.50;13.30;;;;;;;14.43;70.53;100323.54;105024;1262;60451;-59
2023/10/22 04:17:10;;;;;;;20.00;13.80;;;;;;;14.47;70.61;100321.16;104891;1262;63742;-61
2023/10/22 04:19:37;;;;;;;20.50;13.30;;;;;;;14.50;70.68;100320.02;105449;1257;61946;-62
2023/10/22 04:22:06;;;;;;;22.50;13.20;;;;;;;14.49;70.83;100322.20;105023;1258;64416;-60
2023/10/22 04:24:33;;;;;;;24.90;14.60;;;;;;;14.49;70.83;100324.21;105198;1258;60461;-60
2023/10/22 04:27:02;;;;;;;21.00;13.50;;;;;;;14.52;70.55;100326.77;105067;1262;60370;-53
2023/10/22 04:29:29;;;;;;;22.00;13.10;;;;;;;14.55;70.32;100328.33;105094;1261;64953;-52
2023/10/22 04:31:57;;;;;;;21.00;13.80;;;;;;;14.58;70.47;100325.06;105039;1263;60517;-54
2023/10/22 04:34:25;;;;;;;19.20;13.80;;;;;;;14.61;70.50;100321.67;105073;1258;63751;-54
2023/10/22 04:36:53;;;;;;;21.90;14.30;;;;;;;14.60;70.57;100317.88;105714;1257;60869;-53
2023/10/22 04:39:24;;;;;;;22.30;13.60;;;;;;;14.58;70.48;100316.91;104968;1258;60429;-53
2023/10/22 04:41:52;;;;;;;20.70;13.30;;;;;;;14.58;70.31;100318.18;105441;1257;64945;-62
2023/10/22 04:44:21;;;;;;;20.30;13.10;;;;;;;14.60;70.34;100319.57;105465;1262;62689;-52
2023/10/22 04:46:50;;;;;;;20.10;13.10;;;;;;;14.63;70.36;100319.64;105593;1258;63836;-60
2023/10/22 04:49:19;;;;;;;26.20;14.10;;;;;;;14.65;70.23;100322.64;105225;1257;62190;-60
2023/10/22 04:51:46;;;;;;;22.20;15.00;;;;;;;14.66;70.37;100328.05;105226;1255;62569;-61
2023/10/22 04:54:18;;;;;;;21.90;13.20;;;;;;;14.66;70.40;100329.83;105250;1258;67152;-60
2023/10/22 04:56:46;;;;;;;18.70;12.70;;;;;;;14.67;70.15;100328.45;105250;1257;64044;-60
2023/10/22 04:59:14;;;;;;;18.10;12.30;;;;;;;14.70;69.91;100329.77;105150;1257;63732;-60
2023/10/22 05:01:42;;;;;;;22.80;14.90;;;;;;;14.71;69.89;100333.97;105177;1256;60457;-61
2023/10/22 05:04:10;;;;;;;23.50;14.40;;;;;;;14.70;69.86;100335.09;105224;1260;60572;-60
2023/10/22 05:06:37;;;;;;;20.40;13.40;;;;;;;14.66;69.88;100337.58;106150;1257;64991;-60
2023/10/22 05:09:05;;;;;;;21.40;13.80;;;;;;;14.60;69.75;100335.34;105544;1256;61428;-60
2023/10/22 05:11:33;;;;;;;22.60;14.40;;;;;;;14.56;69.84;100333.23;105116;1260;63882;-59
2023/10/22 05:14:00;;;;;;;21.00;13.40;;;;;;;14.55;69.77;100331.02;105178;1254;60546;-60
2023/10/22 05:16:28;;;;;;;21.60;13.60;;;;;;;14.54;70.03;100330.58;105201;1257;59530;-60
2023/10/22 05:18:55;;;;;;;24.40;14.60;;;;;;;14.54;70.01;100331.11;105185;1258;64928;-59
2023/10/22 05:21:23;;;;;;;25.20;14.70;;;;;;;14.53;70.08;100331.95;107533;1254;61435;-60
2023/10/22 05:23:51;;;;;;;23.70;15.40;;;;;;;14.51;70.35;100341.25;105269;1257;63803;-59
2023/10/22 05:26:19;;;;;;;23.70;13.90;;;;;;;14.49;70.39;100346.56;105341;1254;60413;-59
2023/10/22 05:28:46;;;;;;;27.20;14.40;;;;;;;14.50;70.36;100343.85;105333;1258;60446;-52
2023/10/22 05:31:17;;;;;;;21.00;13.50;;;;;;;14.52;70.31;100336.45;105327;1254;65497;-57
2023/10/22 05:33:45;;;;;;;22.50;13.80;;;;;;;14.53;70.19;100337.02;105430;1255;60641;-62
2023/10/22 05:36:14;;;;;;;21.00;14.30;;;;;;;14.56;70.28;100344.22;105266;1257;63782;-63
2023/10/22 05:38:42;;;;;;;23.30;15.70;;;;;;;14.56;70.37;100350.30;105478;1253;60514;-63
2023/10/22 05:41:18;;;;;;;23.80;14.90;;;;;;;14.54;70.30;100353.91;105232;1258;63350;-63
2023/10/22 05:43:45;;;;;;;23.40;15.60;;;;;;;14.51;70.43;100355.61;105230;1254;64926;-63
2023/10/22 05:46:13;;;;;;;25.10;15.00;;;;;;;14.52;70.32;100362.21;105820;1254;61794;-56
2023/10/22 05:48:41;;;;;;;19.90;14.20;;;;;;;14.53;70.30;100363.36;105304;1258;62708;-56
2023/10/22 05:51:08;;;;;;;26.20;16.40;;;;;;;14.56;70.42;100362.99;105292;1254;60511;-58
2023/10/22 05:53:36;;;;;;;26.60;16.40;;;;;;;14.62;70.43;100368.34;105710;1256;60880;-58
2023/10/22 05:56:04;;;;;;;24.10;16.10;;;;;;;14.66;70.68;100374.23;105338;1257;65026;-55
2023/10/22 05:58:32;;;;;;;29.90;17.60;;;;;;;14.70;70.77;100376.04;105343;1253;61680;-58
2023/10/22 06:00:59;;;;;;;25.00;15.40;;;;;;;14.72;70.53;100382.55;105167;1254;62518;-57
2023/10/22 06:03:27;;;;;;;24.50;15.50;;;;;;;14.72;70.21;100381.65;105234;1253;60592;-56
2023/10/22 06:05:55;;;;;;;27.10;16.30;;;;;;;14.73;70.28;100384.45;105943;1253;60530;-59
2023/10/22 06:08:22;;;;;;;28.30;16.40;;;;;;;14.76;70.24;100383.81;106184;1257;63818;-58
2023/10/22 06:10:50;;;;;;;29.20;17.80;;;;;;;14.79;70.16;100387.86;105505;1258;61772;-57
2023/10/22 06:13:18;;;;;;;25.50;17.50;;;;;;;14.82;70.17;100390.01;105304;1253;64228;-57
2023/10/22 06:15:46;;;;;;;31.60;20.10;;;;;;;14.80;70.12;100391.61;105306;1253;62728;-58
2023/10/22 06:18:14;;;;;;;29.80;17.80;;;;;;;14.78;70.18;100392.58;105313;1253;60461;-58
2023/10/22 06:20:41;;;;;;;29.10;18.10;;;;;;;14.80;69.98;100389.91;105338;1253;64927;-58
2023/10/22 06:23:09;;;;;;;27.60;16.40;;;;;;;14.85;70.21;100386.72;105480;1257;60437;-60
2023/10/22 06:25:37;;;;;;;28.60;18.30;;;;;;;14.91;70.19;100379.99;105235;1257;63763;-61
2023/10/22 06:28:05;;;;;;;31.60;20.50;;;;;;;14.93;70.09;100378.00;105629;1253;60857;-61
2023/10/22 06:30:34;;;;;;;29.40;20.50;;;;;;;14.93;70.11;100376.43;105849;1253;60553;-63
2023/10/22 06:33:03;;;;;;;26.50;18.10;;;;;;;14.93;70.03;100380.48;105323;1253;67428;-63
2023/10/22 06:35:32;;;;;;;26.00;18.20;;;;;;;14.96;70.06;100377.33;105874;1254;61472;-51
2023/10/22 06:38:01;;;;;;;27.40;17.70;;;;;;;15.00;70.01;100376.03;105858;1254;63813;-49
2023/10/22 06:40:28;;;;;;;28.10;18.40;;;;;;;15.06;70.00;100381.98;105277;1258;61215;-50
2023/10/22 06:42:57;;;;;;;34.80;22.10;;;;;;;15.11;70.05;100382.25;105510;1253;60528;-50
2023/10/22 06:45:26;;;;;;;32.40;20.60;;;;;;;15.11;69.89;100382.48;105883;1254;64137;-49
2023/10/22 06:47:56;;;;;;;30.80;19.50;;;;;;;15.12;69.93;100380.63;105402;1253;61517;-51
2023/10/22 06:50:24;;;;;;;27.00;18.10;;;;;;;15.17;69.89;100367.83;105992;1257;63722;-51
2023/10/22 06:52:52;;;;;;;26.80;17.90;;;;;;;15.22;69.67;100363.80;105192;1254;60370;-50
2023/10/22 06:55:20;;;;;;;30.30;21.00;;;;;;;15.24;69.51;100363.58;105254;1257;59248;-50
2023/10/22 06:57:48;;;;;;;32.00;21.50;;;;;;;15.25;69.54;100359.48;105353;1253;65101;-50
2023/10/22 07:00:16;;;;;;;32.80;22.50;;;;;;;15.23;69.67;100356.25;105344;1258;60866;-53
2023/10/22 07:02:46;;;;;;;33.50;21.30;;;;;;;15.20;69.70;100349.14;105342;1257;64732;-51
2023/10/22 07:05:16;;;;;;;30.60;20.50;;;;;;;15.23;69.74;100343.78;105401;1254;60532;-49
2023/10/22 07:07:45;;;;;;;31.00;21.20;;;;;;;15.27;69.71;100343.92;105435;1253;60455;-49
2023/10/22 07:10:13;;;;;;;36.40;23.10;;;;;;;15.31;69.72;100341.70;105419;1253;64998;-48
2023/10/22 07:12:41;;;;;;;38.80;23.60;;;;;;;15.37;69.93;100340.61;106355;1254;61307;-50
2023/10/22 07:15:12;;;;;;;34.60;24.70;;;;;;;15.43;70.10;100342.61;105267;1254;63966;-50
2023/10/22 07:17:40;;;;;;;38.50;24.20;;;;;;;15.48;69.77;100347.25;105527;1255;60410;-51
2023/10/22 07:20:08;;;;;;;36.40;22.30;;;;;;;15.51;69.48;100342.36;105281;1257;60501;-50
2023/10/22 07:22:36;;;;;;;36.10;23.00;;;;;;;15.56;69.13;100345.22;105614;1257;65034;-51
2023/10/22 07:25:04;;;;;;;38.10;25.10;;;;;;;15.57;69.18;100346.15;105285;1253;61393;-51
2023/10/22 07:27:32;;;;;;;39.70;25.20;;;;;;;15.57;69.15;100337.39;105833;1255;62413;-51
2023/10/22 07:29:59;;;;;;;43.50;27.10;;;;;;;15.55;69.40;100329.59;105266;1253;61035;-49
2023/10/22 07:32:27;;;;;;;49.00;26.80;;;;;;;15.54;69.41;100332.02;105907;1253;59627;-50
2023/10/22 07:34:55;;;;;;;49.00;27.30;;;;;;;15.53;69.18;100331.53;105305;1253;64930;-49
2023/10/22 07:37:22;;;;;;;40.00;24.80;;;;;;;15.56;69.14;100328.73;105501;1257;61816;-51
2023/10/22 07:39:52;;;;;;;43.80;25.70;;;;;;;15.59;68.96;100324.18;105404;1254;74685;-50
2023/10/22 07:42:20;;;;;;;39.30;26.10;;;;;;;15.61;69.02;100325.08;105405;1255;60469;-50
2023/10/22 07:44:50;;;;;;;49.30;27.60;;;;;;;15.61;68.99;100317.80;105287;1257;60397;-53
2023/10/22 07:47:18;;;;;;;45.40;29.30;;;;;;;15.60;69.14;100312.77;105305;1253;64937;-54
2023/10/22 07:49:51;;;;;;;48.10;27.10;;;;;;;15.57;69.13;100304.95;105333;1256;61542;-55
2023/10/22 07:52:20;;;;;;;50.50;27.60;;;;;;;15.61;69.18;100303.00;106114;1256;65107;-57
2023/10/22 07:54:52;;;;;;;45.90;27.20;;;;;;;15.67;69.05;100303.46;105224;1257;61045;-54
2023/10/22 07:57:21;;;;;;;50.90;27.80;;;;;;;15.72;68.96;100312.85;105442;1253;60773;-54
2023/10/22 07:59:51;;;;;;;46.90;29.30;;;;;;;15.73;68.97;100310.79;106904;1255;63907;-55
2023/10/22 08:02:20;;;;;;;52.60;28.10;;;;;;;15.72;69.11;100306.25;105431;1257;63299;-54
2023/10/22 08:04:48;;;;;;;51.70;31.40;;;;;;;15.73;69.00;100307.77;105161;1253;62839;-53
2023/10/22 08:07:19;;;;;;;47.20;28.60;;;;;;;15.71;68.87;100307.23;105460;1257;60524;-53
2023/10/22 08:09:47;;;;;;;45.00;28.50;;;;;;;15.75;68.95;100305.80;105156;1257;60459;-53
2023/10/22 08:12:14;;;;;;;44.40;28.40;;;;;;;15.81;68.77;100303.23;105153;1257;64938;-52
2023/10/22 08:14:42;;;;;;;52.40;29.60;;;;;;;15.86;68.81;100301.73;105101;1253;61365;-51
2023/10/22 08:17:10;;;;;;;58.60;32.80;;;;;;;15.87;68.77;100292.95;105128;1253;62476;-53
2023/10/22 08:19:37;;;;;;;48.30;32.60;;;;;;;15.87;68.82;100280.36;105068;1259;60652;-52
2023/10/22 08:22:05;;;;;;;49.30;31.00;;;;;;;15.88;68.80;100263.83;106374;1253;60478;-53
2023/10/22 08:24:33;;;;;;;47.90;30.20;;;;;;;15.91;68.56;100257.71;105801;1253;64931;-53
2023/10/22 08:27:01;;;;;;;45.70;29.00;;;;;;;15.93;68.24;100253.88;105997;1252;61522;-53
2023/10/22 08:29:29;;;;;;;51.90;33.20;;;;;;;15.95;68.31;100254.55;105221;1254;62522;-53
2023/10/22 08:31:57;;;;;;;48.90;30.30;;;;;;;16.00;68.53;100251.89;105225;1253;60483;-52
2023/10/22 08:34:25;;;;;;;51.50;33.40;;;;;;;16.03;68.55;100247.02;105183;1253;60405;-53
2023/10/22 08:36:53;;;;;;;51.10;32.40;;;;;;;16.05;68.62;100241.92;106830;1253;65009;-51
2023/10/22 08:39:20;;;;;;;53.60;32.20;;;;;;;16.05;68.29;100238.14;105238;1254;63203;-53
2023/10/22 08:41:55;;;;;;;50.60;30.90;;;;;;;16.08;67.96;100239.06;105312;1258;63814;-53
2023/10/22 08:44:23;;;;;;;48.10;30.40;;;;;;;16.09;67.75;100242.48;105139;1253;60429;-48
2023/10/22 08:46:51;;;;;;;49.70;32.00;;;;;;;16.12;67.74;100238.48;105252;1257;60412;-53
2023/10/22 08:49:18;;;;;;;54.90;33.30;;;;;;;16.15;67.79;100237.04;105327;1254;63830;-54
2023/10/22 08:51:47;;;;;;;55.20;33.40;;;;;;;16.16;67.75;100237.54;105215;1257;61581;-54
2023/10/22 08:54:16;;;;;;;53.40;34.10;;;;;;;16.17;67.75;100234.59;105312;1253;62533;-54
2023/10/22 08:56:44;;;;;;;49.50;32.40;;;;;;;16.14;67.50;100229.21;105390;1257;60553;-53
2023/10/22 08:59:12;;;;;;;52.80;31.80;;;;;;;16.15;67.56;100222.41;105527;1253;60544;-52
2023/10/22 09:01:40;;;;;;;51.40;29.60;;;;;;;16.18;67.40;100218.23;105021;1253;63703;-52
2023/10/22 09:04:08;;;;;;;47.70;31.00;;;;;;;16.27;67.24;100219.73;105132;1254;61648;-52
2023/10/22 09:06:36;;;;;;;54.90;33.10;;;;;;;16.31;67.24;100210.27;105157;1257;62529;-54
2023/10/22 09:09:04;;;;;;;51.30;33.50;;;;;;;16.33;67.22;100204.09;105435;1257;60456;-52
2023/10/22 09:11:31;;;;;;;52.70;32.40;;;;;;;16.32;66.91;100192.63;105965;1253;60458;-53
2023/10/22 09:14:01;;;;;;;44.30;30.30;;;;;;;16.30;66.88;100181.19;105254;1255;64957;-54
2023/10/22 09:16:40;;;;;;;49.30;28.70;;;;;;;16.33;66.67;100172.02;106040;1257;61377;-55
2023/10/22 09:19:09;;;;;;;46.10;29.50;;;;;;;16.39;66.48;100164.81;105623;1253;66035;-54
2023/10/22 09:21:42;;;;;;;50.50;30.00;;;;;;;16.44;66.44;100165.82;105186;1253;60550;-55
2023/10/22 09:24:10;;;;;;;51.00;30.90;;;;;;;16.51;66.42;100166.31;106284;1256;60429;-54
2023/10/22 09:26:44;;;;;;;47.30;29.20;;;;;;;16.56;66.35;100163.30;105562;1253;65363;-50
2023/10/22 09:29:11;;;;;;;45.40;29.20;;;;;;;16.59;66.12;100155.81;105441;1253;61392;-53
2023/10/22 09:31:51;;;;;;;41.40;28.30;;;;;;;16.60;66.03;100145.79;105573;1253;63674;-50
2023/10/22 09:34:25;;;;;;;40.80;26.10;;;;;;;16.67;65.71;100139.84;106736;1255;60505;-53
2023/10/22 09:36:54;;;;;;;41.10;26.80;;;;;;;16.75;65.70;100145.63;105230;1257;60534;-54
2023/10/22 09:39:35;;;;;;;39.30;28.30;;;;;;;16.84;65.65;100147.16;105167;1253;67068;-50
2023/10/22 09:42:04;;;;;;;45.00;29.20;;;;;;;16.92;65.50;100151.30;105278;1256;60445;-48
2023/10/22 09:44:37;;;;;;;46.50;30.30;;;;;;;16.98;65.52;100150.33;106721;1255;63758;-47
2023/10/22 09:47:08;;;;;;;44.90;31.90;;;;;;;17.04;65.55;100148.36;105733;1254;60563;-47
2023/10/22 09:49:38;;;;;;;46.00;29.20;;;;;;;17.14;65.41;100143.90;105158;1253;60503;-52
2023/10/22 09:52:06;;;;;;;43.20;27.30;;;;;;;17.28;65.23;100141.10;106421;1256;65381;-46
2023/10/22 09:54:40;;;;;;;39.70;25.30;;;;;;;17.46;64.93;100143.14;105173;1253;61352;-49
2023/10/22 09:57:17;;;;;;;38.70;26.30;;;;;;;17.62;64.40;100133.91;105324;1254;63442;-50
2023/10/22 09:59:44;;;;;;;41.50;27.70;;;;;;;17.75;64.16;100125.98;105394;1257;60489;-50
2023/10/22 10:02:15;;;;;;;41.20;28.20;;;;;;;17.87;63.82;100118.85;105279;1256;60779;-54
2023/10/22 10:04:49;;;;;;;41.50;28.50;;;;;;;17.95;63.42;100119.62;105226;1257;64052;-51
2023/10/22 10:07:18;;;;;;;46.70;26.30;;;;;;;18.03;63.33;100112.14;105107;1253;61383;-51
2023/10/22 10:09:45;;;;;;;40.70;27.30;;;;;;;18.13;63.08;100107.71;105082;1253;63765;-55
2023/10/22 10:12:13;;;;;;;39.70;27.30;;;;;;;18.25;62.80;100111.24;104955;1254;513848;-49
2023/10/22 10:15:59;;;;;;;43.10;28.80;;;;;;;18.24;62.89;100102.45;102233;1292;601214;-50
2023/10/22 10:19:02;;;;;;;37.70;28.60;;;;;;;18.56;61.86;100106.00;105048;1266;60107;-52
2023/10/22 10:21:33;;;;;;;41.00;26.70;;;;;;;18.67;61.55;100100.83;104989;1267;59267;-49
2023/10/22 10:24:25;;;;;;;41.90;25.50;;;;;;;18.74;61.61;100097.15;104292;1270;63339;-46
2023/10/22 10:26:56;;;;;;;40.90;26.70;;;;;;;18.87;61.18;100091.70;105070;1269;62623;-48
2023/10/22 10:29:34;;;;;;;42.10;27.80;;;;;;;18.98;60.66;100086.69;104114;1266;223786;-50
2023/10/22 10:32:14;;;;;;;41.40;28.90;;;;;;;19.04;60.44;100079.02;104563;1264;59275;-49
2023/10/22 10:34:44;;;;;;;41.20;28.40;;;;;;;19.07;60.38;100073.98;104468;1263;59326;-53
2023/10/22 10:37:14;;;;;;;41.30;28.80;;;;;;;19.08;60.43;100065.36;104813;1263;62054;-46
2023/10/22 10:39:45;;;;;;;44.70;28.30;;;;;;;19.11;60.44;100055.39;105681;1268;60122;-52
2023/10/22 10:42:14;;;;;;;38.70;26.20;;;;;;;19.17;60.37;100052.02;104303;1264;62449;-52
2023/10/22 10:44:57;;;;;;;41.80;25.30;;;;;;;19.25;60.07;100036.98;104835;1269;63715;-48
2023/10/22 10:47:25;;;;;;;38.50;26.50;;;;;;;19.34;59.85;100036.48;104554;1263;59521;-48
2023/10/22 10:50:03;;;;;;;41.60;27.10;;;;;;;19.39;59.59;100041.31;105282;1256;64150;-47
2023/10/22 10:52:44;;;;;;;38.40;28.20;;;;;;;19.42;59.30;100052.97;105936;1256;61456;-47
2023/10/22 10:55:15;;;;;;;42.90;28.80;;;;;;;19.46;59.12;100060.34;105342;1258;64334;-47
2023/10/22 10:57:51;;;;;;;46.10;27.30;;;;;;;19.49;59.11;100049.12;105218;1256;59756;-47
2023/10/22 11:00:24;;;;;;;;;;;;;;;19.53;58.87;100037.48;105400;1256;59560;-52
2023/10/22 11:02:52;;;;;;;46.10;27.00;;;;;;;19.59;58.66;100046.31;105464;1256;64322;-52
2023/10/22 11:05:29;;;;;;;37.60;26.20;;;;;;;19.69;58.49;100059.68;105282;1256;61328;-53
2023/10/22 11:07:57;;;;;;;41.90;27.60;;;;;;;19.74;58.12;100065.82;106141;1257;63995;-59
2023/10/22 11:10:27;;;;;;;37.70;26.80;;;;;;;19.79;58.15;100061.89;105291;1254;59724;-60
2023/10/22 11:13:01;;;;;;;37.60;26.80;;;;;;;19.87;58.10;100055.89;105494;1252;59791;-56